Time;durP1;ratioP1;P1;durP2;ratioP2;P2;SDS_P1;SDS_P2;PMS_P1;PMS_P2;Temp;Humidity;BMP_temperature;BMP_pressure;BME280_temperature;BME280_humidity;BME280_pressure;Samples;Min_cycle;Max_cycle;Signal;HPM_P1;HPM_P2
2022/11/24 00:01:31;;;;;;;24.03;16.73;;;;;;;6.86;100.00;98216.59;5107476;28;20198;-80
2022/11/24 00:04:01;;;;;;;24.63;16.47;;;;;;;6.99;100.00;98229.78;5109657;28;20248;-81
2022/11/24 00:06:32;;;;;;;25.83;16.67;;;;;;;6.92;100.00;98230.28;5112666;28;20240;-80
2022/11/24 00:09:02;;;;;;;28.57;17.23;;;;;;;6.89;100.00;98229.53;5113521;28;20194;-81
2022/11/24 00:11:32;;;;;;;24.10;16.90;;;;;;;7.02;100.00;98219.06;5115990;27;20244;-80
2022/11/24 00:14:02;;;;;;;26.20;16.90;;;;;;;6.95;100.00;98222.16;5090952;28;20243;-81
2022/11/24 00:16:34;;;;;;;27.27;17.10;;;;;;;6.98;100.00;98229.91;5112346;28;20194;-80
2022/11/24 00:19:07;;;;;;;27.03;17.63;;;;;;;6.99;100.00;98228.94;5113234;28;20278;-80
2022/11/24 00:21:38;;;;;;;27.63;17.60;;;;;;;6.88;100.00;98221.75;5109781;28;20199;-81
2022/11/24 00:24:10;;;;;;;26.30;17.60;;;;;;;6.89;100.00;98226.06;5067706;28;20681;-80
2022/11/24 00:26:38;;;;;;;36.87;19.93;;;;;;;6.82;100.00;98230.84;5067965;28;20244;-80
2022/11/24 00:29:11;;;;;;;28.27;19.17;;;;;;;6.78;100.00;98236.44;5068886;28;20185;-81
2022/11/24 00:31:41;;;;;;;26.73;18.63;;;;;;;6.79;100.00;98244.22;5069922;28;20213;-80
2022/11/24 00:34:11;;;;;;;28.63;18.40;;;;;;;6.74;100.00;98250.72;5074246;28;20215;-80
2022/11/24 00:36:43;;;;;;;29.43;18.13;;;;;;;6.87;100.00;98249.00;5070516;28;20200;-81
2022/11/24 00:39:14;;;;;;;26.37;17.70;;;;;;;6.94;100.00;98257.34;5074035;28;20236;-80
2022/11/24 00:41:43;;;;;;;27.70;17.70;;;;;;;6.91;100.00;98260.19;5068696;28;20204;-81
2022/11/24 00:44:13;;;;;;;28.13;16.87;;;;;;;6.93;100.00;98264.38;5072480;28;20196;-80
2022/11/24 00:46:42;;;;;;;24.70;16.40;;;;;;;6.92;100.00;98273.22;5067566;28;20254;-80
2022/11/24 00:49:11;;;;;;;25.03;17.00;;;;;;;6.88;100.00;98271.75;5068980;28;20294;-81
2022/11/24 00:51:41;;;;;;;27.23;17.20;;;;;;;6.92;100.00;98267.13;5066954;28;20189;-80
2022/11/24 00:54:09;;;;;;;26.20;17.93;;;;;;;7.01;100.00;98270.03;5063472;28;20204;-81
2022/11/24 00:56:38;;;;;;;29.53;17.63;;;;;;;7.05;100.00;98270.69;5033721;28;20201;-80
2022/11/24 00:59:07;;;;;;;26.50;16.70;;;;;;;7.04;100.00;98275.06;5027989;28;20663;-81
2022/11/24 01:01:37;;;;;;;25.47;17.47;;;;;;;7.02;100.00;98263.81;5053413;28;20199;-80
2022/11/24 01:04:06;;;;;;;26.30;17.37;;;;;;;6.96;100.00;98272.13;5075909;28;20279;-80
2022/11/24 01:06:38;;;;;;;25.17;16.40;;;;;;;6.90;100.00;98283.03;5092048;28;20302;-80
2022/11/24 01:09:06;;;;;;;26.30;16.67;;;;;;;6.92;100.00;98281.13;5059186;28;20196;-80
2022/11/24 01:14:23;;;;;;;25.43;16.47;;;;;;;6.93;100.00;98287.25;5093298;28;20200;-80
2022/11/24 01:16:54;;;;;;;22.73;15.77;;;;;;;6.67;100.00;98295.00;5086299;28;20202;-80
2022/11/24 01:19:24;;;;;;;26.27;16.10;;;;;;;6.71;100.00;98293.00;5086701;28;20204;-80
2022/11/24 01:21:52;;;;;;;24.83;16.77;;;;;;;6.60;100.00;98293.69;5104655;28;20195;-80
2022/11/24 01:24:21;;;;;;;21.67;14.90;;;;;;;6.71;100.00;98295.66;5115615;28;20187;-80
2022/11/24 01:26:54;;;;;;;23.30;15.63;;;;;;;6.68;100.00;98301.94;5113833;28;20215;-80
2022/11/24 01:29:25;;;;;;;20.33;15.63;;;;;;;6.60;100.00;98297.16;5113177;28;20210;-80
2022/11/24 01:31:55;;;;;;;23.30;15.87;;;;;;;6.69;100.00;98303.63;5124183;27;20218;-80
2022/11/24 01:34:24;;;;;;;25.03;15.60;;;;;;;6.88;100.00;98303.34;5124670;28;20195;-80
2022/11/24 01:36:52;;;;;;;24.13;15.43;;;;;;;6.83;100.00;98310.66;5083518;27;20194;-80
2022/11/24 01:39:22;;;;;;;23.57;16.13;;;;;;;6.82;100.00;98309.81;5052844;28;20189;-79
2022/11/24 01:41:51;;;;;;;22.43;14.83;;;;;;;6.80;100.00;98309.06;5045386;28;20235;-80
2022/11/24 01:44:22;;;;;;;22.00;14.80;;;;;;;6.80;100.00;98311.69;5043312;28;20228;-80
2022/11/24 01:46:58;;;;;;;20.13;15.07;;;;;;;6.63;100.00;98318.94;5042677;28;20244;-79
2022/11/24 01:49:36;;;;;;;22.77;15.73;;;;;;;6.78;100.00;98329.38;5050818;28;20218;-80
2022/11/24 01:52:11;;;;;;;24.13;15.67;;;;;;;6.80;100.00;98326.66;5046978;28;20232;-80
2022/11/24 01:54:47;;;;;;;27.07;14.93;;;;;;;6.78;100.00;98329.38;5047160;28;20280;-80
2022/11/24 01:57:21;;;;;;;22.90;15.53;;;;;;;6.66;100.00;98331.91;5090099;27;20191;-80
2022/11/24 01:59:55;;;;;;;23.33;15.47;;;;;;;6.75;100.00;98332.19;5130926;27;20194;-80
2022/11/24 02:02:28;;;;;;;25.13;15.53;;;;;;;6.78;100.00;98334.66;5131463;27;20190;-80
2022/11/24 02:05:02;;;;;;;20.37;14.50;;;;;;;6.82;100.00;98336.13;5131496;27;20198;-80
2022/11/24 02:07:31;;;;;;;23.50;15.73;;;;;;;6.83;100.00;98332.56;5097652;27;20240;-80
2022/11/24 02:10:04;;;;;;;22.80;15.93;;;;;;;6.92;100.00;98336.41;5132849;27;20214;-79
2022/11/24 02:12:33;;;;;;;23.70;15.33;;;;;;;6.65;100.00;98341.59;5141196;27;20318;-79
2022/11/24 02:15:02;;;;;;;23.87;15.30;;;;;;;6.47;100.00;98350.63;5106595;27;20687;-80
2022/11/24 02:17:32;;;;;;;25.40;15.80;;;;;;;6.60;100.00;98347.13;5131384;27;20201;-80
2022/11/24 02:20:03;;;;;;;22.00;16.10;;;;;;;6.43;100.00;98342.06;5129770;27;20198;-80
2022/11/24 02:22:38;;;;;;;23.23;15.37;;;;;;;6.55;100.00;98341.28;5135231;27;20209;-80
2022/11/24 02:25:17;;;;;;;20.90;13.50;;;;;;;6.63;100.00;98347.88;5132875;27;20281;-80
2022/11/24 02:27:47;;;;;;;21.77;13.30;;;;;;;6.67;100.00;98350.25;5127451;27;20251;-80
2022/11/24 02:30:21;;;;;;;21.33;13.53;;;;;;;6.84;100.00;98357.09;5132842;27;20215;-80
2022/11/24 02:32:51;;;;;;;17.87;11.60;;;;;;;6.84;100.00;98357.09;5133813;27;20222;-80
2022/11/24 02:35:21;;;;;;;20.17;11.37;;;;;;;6.77;100.00;98351.38;5130466;27;20232;-80
2022/11/24 02:37:49;;;;;;;22.03;13.63;;;;;;;6.87;100.00;98356.91;5135163;27;20232;-80
2022/11/24 02:40:24;;;;;;;21.17;14.10;;;;;;;6.87;100.00;98355.13;5122508;27;20648;-80
2022/11/24 02:42:58;;;;;;;20.90;14.80;;;;;;;6.82;100.00;98344.03;5127483;27;20227;-80
2022/11/24 02:45:28;;;;;;;23.20;15.47;;;;;;;6.79;100.00;98356.53;5131644;27;20628;-80
2022/11/24 02:47:56;;;;;;;25.50;15.30;;;;;;;6.76;100.00;98346.22;5124003;27;20214;-80
2022/11/24 02:50:24;;;;;;;26.43;16.03;;;;;;;6.59;100.00;98345.44;5129198;27;20637;-80
2022/11/24 02:52:53;;;;;;;21.70;14.50;;;;;;;6.64;100.00;98347.78;5131130;27;20187;-80
2022/11/24 02:55:22;;;;;;;22.27;14.57;;;;;;;6.54;100.00;98344.88;5121859;27;20202;-80
2022/11/24 02:57:56;;;;;;;22.83;15.07;;;;;;;6.57;100.00;98349.97;5131740;27;20198;-79
2022/11/24 03:00:34;;;;;;;23.33;13.83;;;;;;;6.70;100.00;98343.94;5089919;28;20183;-79
2022/11/24 03:03:04;;;;;;;26.63;15.00;;;;;;;6.58;100.00;98346.41;5087082;28;20627;-80
2022/11/24 03:05:33;;;;;;;25.03;14.43;;;;;;;6.67;100.00;98349.41;5086568;28;20233;-80
2022/11/24 03:08:02;;;;;;;24.40;14.53;;;;;;;6.64;100.00;98346.94;5085407;28;20262;-80
2022/11/24 03:10:31;;;;;;;24.63;14.23;;;;;;;6.59;100.00;98352.50;5089256;28;20192;-80
2022/11/24 03:12:59;;;;;;;22.53;13.87;;;;;;;6.84;100.00;98351.81;5084670;28;20191;-80
2022/11/24 03:15:30;;;;;;;21.90;13.47;;;;;;;6.89;100.00;98350.63;5088878;28;20303;-80
2022/11/24 03:17:58;;;;;;;21.73;13.83;;;;;;;6.76;100.00;98346.22;5040556;28;20283;-80
2022/11/24 03:20:28;;;;;;;24.10;13.50;;;;;;;6.80;100.00;98347.69;5082177;28;20195;-80
2022/11/24 03:22:57;;;;;;;24.10;14.90;;;;;;;6.80;100.00;98347.69;5085006;28;20207;-80
2022/11/24 03:25:25;;;;;;;24.23;13.50;;;;;;;6.64;100.00;98352.22;5056164;28;20193;-80
2022/11/24 03:27:56;;;;;;;28.27;14.13;;;;;;;6.78;100.00;98362.75;5063726;28;20220;-80
2022/11/24 03:30:24;;;;;;;28.07;14.07;;;;;;;6.77;100.00;98359.28;5065651;28;20207;-80
2022/11/24 03:32:55;;;;;;;19.30;12.67;;;;;;;6.83;100.00;98366.78;5058690;28;20227;-80
2022/11/24 03:35:24;;;;;;;23.70;13.23;;;;;;;6.77;100.00;98371.59;5061999;28;20200;-80
2022/11/24 03:37:53;;;;;;;22.90;13.53;;;;;;;6.76;100.00;98369.91;5062700;28;20200;-80
2022/11/24 03:40:21;;;;;;;26.53;13.70;;;;;;;6.82;100.00;98372.13;5067790;28;20690;-80
2022/11/24 03:42:50;;;;;;;24.40;14.50;;;;;;;6.83;100.00;98368.56;5077721;28;20240;-80
2022/11/24 03:45:18;;;;;;;25.33;13.97;;;;;;;6.76;100.00;98368.09;5127869;27;20263;-80
2022/11/24 03:48:10;;;;;;;23.30;13.70;;;;;;;6.70;100.00;98384.25;5132763;28;20221;-80
2022/11/24 03:50:38;;;;;;;22.93;14.27;;;;;;;6.73;100.00;98380.59;5127097;27;20239;-80
2022/11/24 03:53:07;;;;;;;21.90;13.93;;;;;;;6.59;100.00;98379.66;5131119;28;20194;-80
2022/11/24 03:55:36;;;;;;;26.40;15.17;;;;;;;6.38;100.00;98382.72;5127617;27;20187;-80
2022/11/24 03:58:05;;;;;;;22.80;14.20;;;;;;;6.71;100.00;98387.75;5125798;27;20327;-80
2022/11/24 04:00:34;;;;;;;27.53;14.97;;;;;;;6.54;100.00;98373.81;5125627;27;20680;-81
2022/11/24 04:03:03;;;;;;;22.60;14.43;;;;;;;6.56;100.00;98379.84;5129797;27;20186;-80
2022/11/24 04:05:35;;;;;;;27.47;14.53;;;;;;;6.57;100.00;98389.44;5130216;27;20264;-80
2022/11/24 04:08:05;;;;;;;19.30;13.43;;;;;;;6.64;100.00;98381.16;5100662;27;20308;-80
2022/11/24 04:10:36;;;;;;;24.93;14.20;;;;;;;6.53;100.00;98377.38;5131054;27;20186;-80
2022/11/24 04:13:04;;;;;;;24.07;14.17;;;;;;;6.51;100.00;98379.25;5071065;28;20647;-80
2022/11/24 04:15:32;;;;;;;27.17;14.07;;;;;;;6.42;100.00;98392.13;5067624;28;20262;-80
2022/11/24 04:18:02;;;;;;;32.37;14.00;;;;;;;6.32;100.00;98392.66;5064440;28;20237;-80
2022/11/24 04:20:33;;;;;;;27.37;13.83;;;;;;;6.56;100.00;98397.38;5070042;28;20278;-80
2022/11/24 04:23:02;;;;;;;20.47;13.30;;;;;;;6.70;100.00;98405.31;5071166;28;20200;-80
2022/11/24 04:25:32;;;;;;;44.03;14.53;;;;;;;6.58;100.00;98406.06;5068236;28;20238;-80
2022/11/24 04:28:02;;;;;;;48.03;14.43;;;;;;;6.52;100.00;98402.00;5071051;28;20259;-80
2022/11/24 04:30:31;;;;;;;27.63;13.83;;;;;;;6.52;100.00;98398.53;5084300;27;20224;-80
2022/11/24 04:33:00;;;;;;;102.93;16.97;;;;;;;6.49;100.00;98394.28;5028650;28;20217;-80
2022/11/24 04:35:29;;;;;;;41.97;14.13;;;;;;;6.42;100.00;98395.59;5028331;28;20201;-80
2022/11/24 04:38:02;;;;;;;95.63;18.17;;;;;;;6.28;100.00;98411.34;5031009;28;20205;-80
2022/11/24 04:40:30;;;;;;;33.07;14.37;;;;;;;6.35;100.00;98409.19;5031731;28;20271;-80
2022/11/24 04:42:59;;;;;;;54.33;15.40;;;;;;;6.38;100.00;98411.66;4991454;28;20211;-80
2022/11/24 04:45:28;;;;;;;20.03;14.17;;;;;;;6.50;100.00;98416.19;4988953;28;20198;-80
2022/11/24 04:47:56;;;;;;;20.50;13.50;;;;;;;6.59;100.00;98423.53;4990858;28;20714;-80
2022/11/24 04:50:25;;;;;;;27.37;14.07;;;;;;;6.54;100.00;98431.69;4997124;28;20232;-80
2022/11/24 04:52:54;;;;;;;23.60;13.97;;;;;;;6.47;100.00;98432.16;5001954;28;20251;-80
2022/11/24 04:55:24;;;;;;;28.93;13.70;;;;;;;6.58;100.00;98441.09;5042793;28;20197;-80
2022/11/24 04:57:52;;;;;;;22.83;13.20;;;;;;;6.52;100.00;98438.81;5051355;28;20196;-80
2022/11/24 05:00:21;;;;;;;21.07;13.27;;;;;;;6.56;100.00;98442.09;5050362;28;20301;-80
2022/11/24 05:02:50;;;;;;;24.60;13.40;;;;;;;6.40;100.00;98447.44;5045712;28;20197;-80
2022/11/24 05:05:18;;;;;;;22.57;13.23;;;;;;;6.65;100.00;98451.25;5045952;28;20193;-80
2022/11/24 05:07:47;;;;;;;23.63;12.90;;;;;;;6.71;100.00;98456.16;5093723;27;20215;-80
2022/11/24 05:13:05;;;;;;;26.07;13.50;;;;;;;6.66;100.00;98476.63;5133430;27;20198;-81
2022/11/24 05:15:34;;;;;;;27.50;15.10;;;;;;;6.52;100.00;98485.34;5136594;27;20198;-80
2022/11/24 05:18:06;;;;;;;32.13;16.60;;;;;;;6.49;100.00;98477.63;5123974;27;20198;-80
2022/11/24 05:20:35;;;;;;;25.53;14.17;;;;;;;6.66;100.00;98482.75;5132541;27;20254;-80
2022/11/24 05:23:04;;;;;;;32.83;14.93;;;;;;;6.70;100.00;98484.25;5136615;27;20190;-80
2022/11/24 05:25:33;;;;;;;30.13;14.87;;;;;;;6.71;100.00;98487.72;5130285;27;20251;-80
2022/11/24 05:28:07;;;;;;;25.90;14.13;;;;;;;6.77;100.00;98487.38;5129057;27;20271;-80
2022/11/24 05:30:38;;;;;;;27.13;14.57;;;;;;;6.77;100.00;98496.13;5136543;27;20189;-80
2022/11/24 05:33:07;;;;;;;25.23;13.07;;;;;;;6.95;100.00;98495.94;5112659;27;20279;-80
2022/11/24 05:35:36;;;;;;;23.40;13.87;;;;;;;6.93;100.00;98493.41;5131290;27;20649;-80
2022/11/24 05:38:06;;;;;;;24.00;13.87;;;;;;;6.85;100.00;98495.63;5133516;27;20186;-81
2022/11/24 05:40:34;;;;;;;23.93;12.70;;;;;;;6.82;100.00;98495.84;5130138;27;20196;-80
2022/11/24 05:43:04;;;;;;;25.90;12.93;;;;;;;6.99;100.00;98508.84;5125588;27;20641;-80
2022/11/24 05:45:33;;;;;;;30.20;13.57;;;;;;;7.00;100.00;98504.41;5131384;27;20189;-80
2022/11/24 05:48:05;;;;;;;28.33;13.07;;;;;;;7.00;100.00;98514.94;5131336;27;20211;-80
2022/11/24 05:50:35;;;;;;;30.20;13.00;;;;;;;7.08;100.00;98502.19;5131619;27;20191;-80
2022/11/24 05:53:04;;;;;;;26.10;13.67;;;;;;;7.03;100.00;98501.59;5132990;27;20190;-80
2022/11/24 05:55:35;;;;;;;27.20;13.33;;;;;;;7.11;100.00;98509.88;5097981;27;20182;-80
2022/11/24 05:58:07;;;;;;;24.50;13.23;;;;;;;7.18;100.00;98506.78;5133450;27;20233;-80
2022/11/24 06:00:37;;;;;;;27.73;12.73;;;;;;;7.15;100.00;98507.00;5127175;27;20255;-80
2022/11/24 06:03:05;;;;;;;22.27;11.93;;;;;;;7.12;100.00;98501.88;5125765;27;20252;-80
2022/11/24 06:05:34;;;;;;;23.77;12.20;;;;;;;7.12;100.00;98504.53;5131441;27;20267;-81
2022/11/24 06:08:03;;;;;;;21.87;12.13;;;;;;;7.07;100.00;98503.13;5131083;27;20214;-80
2022/11/24 06:10:31;;;;;;;28.60;13.63;;;;;;;7.06;100.00;98509.31;5128045;27;20203;-80
2022/11/24 06:13:00;;;;;;;28.70;13.87;;;;;;;7.09;100.00;98504.72;5125792;27;20263;-80
2022/11/24 06:15:29;;;;;;;24.90;12.70;;;;;;;7.09;100.00;98501.25;5130947;27;20239;-80
2022/11/24 06:17:58;;;;;;;20.50;11.97;;;;;;;7.09;100.00;98504.72;5128988;27;20243;-80
2022/11/24 06:20:26;;;;;;;25.27;12.77;;;;;;;7.04;100.00;98506.75;5127186;27;20645;-80
2022/11/24 06:23:01;;;;;;;22.77;10.43;;;;;;;6.98;100.00;98511.56;5135340;27;20213;-80
2022/11/24 06:25:30;;;;;;;25.63;10.87;;;;;;;6.96;100.00;98516.94;5132706;27;20182;-80
2022/11/24 06:27:58;;;;;;;17.83;9.50;;;;;;;6.87;100.00;98509.56;5044385;28;20375;-80
2022/11/24 06:30:27;;;;;;;21.37;9.87;;;;;;;6.75;100.00;98513.75;5051835;28;20201;-79
2022/11/24 06:32:57;;;;;;;18.17;10.53;;;;;;;6.75;100.00;98515.53;5046350;28;20217;-80
2022/11/24 06:35:28;;;;;;;24.17;9.83;;;;;;;6.71;100.00;98508.78;5043457;28;20231;-80
2022/11/24 06:37:57;;;;;;;28.73;11.00;;;;;;;6.65;100.00;98517.88;5048488;28;20685;-80
2022/11/24 06:40:25;;;;;;;20.40;9.17;;;;;;;6.70;100.00;98515.84;5015585;28;20185;-80
2022/11/24 06:42:55;;;;;;;21.63;9.87;;;;;;;6.67;100.00;98515.19;5047045;28;20196;-80
2022/11/24 06:45:24;;;;;;;18.80;9.27;;;;;;;6.60;100.00;98512.88;5059345;27;20194;-80
2022/11/24 06:47:54;;;;;;;21.43;10.37;;;;;;;6.65;100.00;98514.41;5126586;27;20247;-80
2022/11/24 06:50:27;;;;;;;21.33;10.30;;;;;;;6.69;100.00;98519.41;5126729;27;20221;-80
2022/11/24 06:53:02;;;;;;;27.53;10.17;;;;;;;6.66;100.00;98524.84;5128690;27;20247;-80
2022/11/24 06:55:31;;;;;;;26.80;10.33;;;;;;;6.68;100.00;98527.38;5127567;27;20199;-80
2022/11/24 06:57:59;;;;;;;27.07;11.50;;;;;;;6.62;100.00;98525.09;5130942;27;20187;-80
2022/11/24 07:00:30;;;;;;;24.33;10.97;;;;;;;6.56;100.00;98523.66;5131780;27;20653;-80
2022/11/24 07:02:59;;;;;;;24.60;11.13;;;;;;;6.67;100.00;98523.91;5130427;27;20236;-80
2022/11/24 07:05:30;;;;;;;23.83;10.40;;;;;;;6.68;100.00;98525.59;5126820;27;20198;-80
2022/11/24 07:08:00;;;;;;;22.37;10.63;;;;;;;6.68;100.00;98525.59;5095157;27;20231;-80
2022/11/24 07:10:29;;;;;;;21.00;10.83;;;;;;;6.73;100.00;98536.69;5125731;27;20191;-80
2022/11/24 07:12:58;;;;;;;21.80;10.63;;;;;;;6.79;100.00;98531.09;5131430;27;20637;-80
2022/11/24 07:15:28;;;;;;;23.27;10.50;;;;;;;6.67;100.00;98531.81;5125418;27;20186;-80
2022/11/24 07:17:57;;;;;;;20.63;9.87;;;;;;;6.85;100.00;98543.00;5128431;27;20187;-80
2022/11/24 07:20:25;;;;;;;23.40;9.73;;;;;;;6.91;100.00;98534.78;5123006;27;20202;-80
2022/11/24 07:22:58;;;;;;;23.63;10.13;;;;;;;6.89;100.00;98537.50;5129207;27;20232;-80
2022/11/24 07:25:27;;;;;;;22.87;9.97;;;;;;;6.98;100.00;98544.00;5124219;27;20210;-80
2022/11/24 07:27:57;;;;;;;27.30;9.80;;;;;;;6.99;100.00;98540.44;5131414;27;20704;-80
2022/11/24 07:30:26;;;;;;;23.47;10.50;;;;;;;7.14;100.00;98551.81;5131346;27;20222;-80
2022/11/24 07:33:00;;;;;;;29.37;9.70;;;;;;;7.20;100.00;98551.47;5113538;27;20219;-80
2022/11/24 07:35:30;;;;;;;22.93;9.80;;;;;;;7.20;100.00;98553.25;5111304;28;20190;-80
2022/11/24 07:38:00;;;;;;;28.20;9.67;;;;;;;7.19;100.00;98557.69;5109219;28;20308;-80
2022/11/24 07:40:29;;;;;;;24.80;8.90;;;;;;;7.30;100.00;98570.19;5120543;28;20190;-80
2022/11/24 07:43:01;;;;;;;19.20;9.40;;;;;;;7.33;100.00;98564.72;5109463;28;20195;-80
2022/11/24 07:45:29;;;;;;;27.40;8.90;;;;;;;7.29;100.00;98569.34;5116678;28;20281;-80
2022/11/24 07:47:57;;;;;;;25.27;8.43;;;;;;;7.45;100.00;98575.41;5031204;28;20276;-80
2022/11/24 07:50:26;;;;;;;25.47;8.17;;;;;;;7.57;100.00;98576.44;5032336;28;20240;-80
2022/11/24 07:52:54;;;;;;;30.27;9.50;;;;;;;7.59;100.00;98585.09;5032365;28;20190;-80
2022/11/24 07:55:24;;;;;;;26.33;9.50;;;;;;;7.55;100.00;98580.97;4980714;28;20317;-80
2022/11/24 07:57:53;;;;;;;25.00;8.67;;;;;;;7.51;100.00;98581.22;5036247;28;20201;-80
2022/11/24 08:00:23;;;;;;;25.90;8.57;;;;;;;7.73;100.00;98587.75;5037410;28;20194;-80
2022/11/24 08:02:51;;;;;;;28.77;9.27;;;;;;;7.68;100.00;98588.94;5018688;28;20186;-79
2022/11/24 08:05:21;;;;;;;20.30;8.17;;;;;;;7.78;100.00;98589.22;5046009;28;20248;-80
2022/11/24 08:07:52;;;;;;;22.47;8.10;;;;;;;7.87;100.00;98599.22;5117116;28;20626;-80
2022/11/24 08:10:25;;;;;;;19.77;7.97;;;;;;;7.89;100.00;98606.06;5115578;28;20214;-79
2022/11/24 08:12:54;;;;;;;26.30;9.37;;;;;;;7.93;100.00;98606.75;5111693;28;20198;-79
2022/11/24 08:15:23;;;;;;;25.13;10.57;;;;;;;7.97;100.00;98609.09;5120246;28;20187;-80
2022/11/24 08:17:52;;;;;;;42.97;21.63;;;;;;;7.99;100.00;98607.19;5064381;28;20199;-79
2022/11/24 08:20:21;;;;;;;41.90;18.13;;;;;;;7.98;100.00;98616.06;5079654;28;20191;-80
2022/11/24 08:23:03;;;;;;;79.90;36.30;;;;;;;8.07;100.00;98619.91;5064127;28;20209;-80
2022/11/24 08:25:33;;;;;;;51.00;17.80;;;;;;;7.99;100.00;98612.47;5116178;28;20199;-80
2022/11/24 08:28:04;;;;;;;36.33;16.83;;;;;;;7.92;100.00;98613.81;5115490;28;20195;-80
2022/11/24 08:30:35;;;;;;;58.60;31.63;;;;;;;8.04;100.00;98613.03;5119934;28;20211;-80
2022/11/24 08:33:05;;;;;;;39.37;16.13;;;;;;;8.08;100.00;98612.84;5131256;27;20271;-80
2022/11/24 08:35:37;;;;;;;44.47;23.73;;;;;;;8.15;100.00;98615.00;5140690;27;20629;-79
2022/11/24 08:38:06;;;;;;;52.70;26.53;;;;;;;8.18;100.00;98622.72;5135858;27;20186;-79
2022/11/24 08:40:38;;;;;;;46.10;21.83;;;;;;;8.13;100.00;98622.19;5134551;27;20262;-79
2022/11/24 08:43:08;;;;;;;41.67;18.77;;;;;;;8.14;100.00;98621.22;5130557;27;20205;-79
2022/11/24 08:45:37;;;;;;;29.60;10.83;;;;;;;8.21;100.00;98625.19;5137533;27;20194;-78
2022/11/24 08:48:10;;;;;;;43.60;19.50;;;;;;;8.23;100.00;98630.34;5135128;27;20190;-79
2022/11/24 08:50:38;;;;;;;27.47;13.43;;;;;;;8.14;100.00;98623.88;5136979;27;20222;-79
2022/11/24 08:53:07;;;;;;;37.67;14.53;;;;;;;8.28;100.00;98629.09;5132678;27;20190;-80
2022/11/24 08:55:36;;;;;;;24.80;10.20;;;;;;;8.31;100.00;98639.50;5029525;28;20236;-80
2022/11/24 08:58:05;;;;;;;28.30;13.77;;;;;;;8.26;100.00;98640.69;5028441;28;20206;-80
2022/11/24 09:00:34;;;;;;;30.60;14.87;;;;;;;8.28;100.00;98649.38;5031335;28;20268;-81
2022/11/24 09:03:05;;;;;;;36.17;13.73;;;;;;;8.35;100.00;98650.72;5024989;28;20193;-82
2022/11/24 09:05:34;;;;;;;34.17;18.00;;;;;;;8.28;100.00;98655.50;5031200;28;20233;-81
2022/11/24 09:08:22;;;;;;;25.87;10.30;;;;;;;8.46;100.00;98658.78;5029738;28;20666;-81
2022/11/24 09:10:53;;;;;;;26.27;8.63;;;;;;;8.44;100.00;98660.69;5029153;28;20225;-78
2022/11/24 09:13:24;;;;;;;24.40;8.87;;;;;;;8.53;100.00;98657.47;5064816;27;20187;-80
2022/11/24 09:15:54;;;;;;;20.87;8.93;;;;;;;8.56;100.00;98657.25;5131157;27;20191;-81
2022/11/24 09:18:23;;;;;;;26.83;8.00;;;;;;;8.54;100.00;98659.16;5134266;27;20191;-79
2022/11/24 09:21:06;;;;;;;25.50;9.27;;;;;;;8.62;100.00;98668.38;5030745;28;20351;-78
2022/11/24 09:23:35;;;;;;;21.07;9.40;;;;;;;8.61;100.00;98664.91;5026954;28;20205;-81
2022/11/24 09:26:07;;;;;;;107.03;45.57;;;;;;;8.76;100.00;98666.53;5028364;28;20653;-78
2022/11/24 09:28:35;;;;;;;45.37;20.87;;;;;;;8.67;100.00;98668.94;5025912;28;20198;-79
2022/11/24 09:31:05;;;;;;;23.40;9.67;;;;;;;8.78;100.00;98663.78;5027328;28;20217;-78
2022/11/24 09:33:35;;;;;;;23.83;10.87;;;;;;;8.94;100.00;98674.22;4950725;29;20255;-79
2022/11/24 09:36:05;;;;;;;15.93;8.17;;;;;;;8.83;100.00;98675.78;4954986;29;20227;-79
2022/11/24 09:38:33;;;;;;;28.27;9.37;;;;;;;8.84;100.00;98674.81;4983217;28;20227;-78
2022/11/24 09:41:21;;;;;;;17.03;8.30;;;;;;;8.86;100.00;98678.19;5049896;28;20193;-78
2022/11/24 09:44:00;;;;;;;20.93;6.50;;;;;;;8.78;100.00;98680.53;5019930;28;20189;-81
2022/11/24 09:46:33;;;;;;;22.83;9.03;;;;;;;8.77;100.00;98672.66;5045231;28;20227;-78
2022/11/24 09:49:05;;;;;;;17.23;6.67;;;;;;;8.81;100.00;98676.81;5052600;28;20320;-79
2022/11/24 09:51:33;;;;;;;17.90;6.20;;;;;;;8.81;100.00;98685.59;5043610;28;20216;-78
2022/11/24 09:54:11;;;;;;;25.47;6.60;;;;;;;8.87;100.00;98695.75;5049225;28;20197;-79
2022/11/24 09:56:42;;;;;;;18.87;6.73;;;;;;;8.93;100.00;98691.88;5050215;28;20201;-79
2022/11/24 09:59:15;;;;;;;18.37;7.13;;;;;;;9.28;100.00;98692.22;5121821;27;20199;-78
2022/11/24 10:01:45;;;;;;;21.90;8.37;;;;;;;9.26;100.00;98704.66;5128352;27;20255;-79
2022/11/24 10:04:17;;;;;;;18.80;4.80;;;;;;;9.52;100.00;98696.78;5135668;27;20203;-79
2022/11/24 10:06:51;;;;;;;13.27;4.47;;;;;;;9.79;100.00;98694.09;5129484;27;20221;-81
2022/11/24 10:09:33;;;;;;;19.27;4.30;;;;;;;10.03;100.00;98695.03;5129045;27;20203;-79
2022/11/24 10:12:16;;;;;;;15.77;5.50;;;;;;;9.95;100.00;98690.31;5130726;27;20206;-79
2022/11/24 10:15:03;;;;;;;11.00;3.07;;;;;;;9.79;100.00;98694.94;5133901;27;20191;-79
2022/11/24 10:17:50;;;;;;;12.20;2.80;;;;;;;9.68;100.00;98694.81;5132071;27;20214;-79
2022/11/24 10:20:26;;;;;;;22.03;10.03;;;;;;;9.51;100.00;98679.25;5135350;27;20190;-79
2022/11/24 10:23:09;;;;;;;17.87;6.20;;;;;;;9.39;100.00;98683.56;5127864;27;20194;-79
2022/11/24 10:25:49;;;;;;;11.43;3.93;;;;;;;9.43;100.00;98690.31;5128970;27;20201;-81
2022/11/24 10:28:19;;;;;;;15.73;11.57;;;;;;;9.35;100.00;98679.41;5135383;27;20676;-81
2022/11/24 10:30:47;;;;;;;10.00;2.73;;;;;;;9.20;100.00;98685.72;5132350;27;20214;-80
2022/11/24 10:33:20;;;;;;;9.10;2.60;;;;;;;9.13;100.00;98687.94;5130661;27;20256;-78
2022/11/24 10:36:04;;;;;;;17.53;2.60;;;;;;;9.28;100.00;98686.94;5129547;27;20198;-81
2022/11/24 10:38:42;;;;;;;8.93;2.30;;;;;;;9.52;100.00;98695.00;5135044;27;20194;-81
2022/11/24 10:41:16;;;;;;;12.07;2.77;;;;;;;9.56;100.00;98690.38;5129912;27;20193;-81
2022/11/24 10:43:46;;;;;;;9.70;2.43;;;;;;;9.64;100.00;98696.81;5134808;27;20197;-81
2022/11/24 10:46:19;;;;;;;16.23;3.10;;;;;;;9.60;100.00;98699.78;5126891;27;20374;-81
2022/11/24 10:48:50;;;;;;;17.30;3.57;;;;;;;9.50;100.00;98694.25;5134776;27;20190;-81
2022/11/24 10:51:37;;;;;;;10.80;3.23;;;;;;;9.24;100.00;98695.13;5134821;27;20304;-81
2022/11/24 10:54:12;;;;;;;11.77;2.20;;;;;;;9.43;100.00;98700.91;5133874;27;20302;-81
2022/11/24 10:56:41;;;;;;;8.23;1.97;;;;;;;9.45;100.00;98693.72;5127699;27;20606;-81
2022/11/24 10:59:30;;;;;;;7.67;2.13;;;;;;;9.30;100.00;98686.81;5127745;27;20198;-81
2022/11/24 11:02:00;;;;;;;6.33;2.00;;;;;;;9.36;100.00;98699.59;5129123;27;20255;-81
2022/11/24 11:04:29;;;;;;;8.27;1.83;;;;;;;9.49;100.00;98699.66;5128707;27;20198;-80
2022/11/24 11:07:18;;;;;;;8.43;1.90;;;;;;;9.89;100.00;98700.44;5122100;27;20202;-81
2022/11/24 11:09:48;;;;;;;8.47;2.73;;;;;;;9.70;100.00;98704.34;5096593;27;20198;-80
2022/11/24 11:12:22;;;;;;;13.03;2.67;;;;;;;9.53;100.00;98691.41;5076196;28;20215;-80
2022/11/24 11:15:31;;;;;;;8.47;2.37;;;;;;;9.71;100.00;98690.16;5128174;27;20435;-80
2022/11/24 11:18:00;;;;;;;9.90;2.17;;;;;;;9.69;100.00;98686.78;5125006;27;20194;-80
2022/11/24 11:20:33;;;;;;;7.40;2.20;;;;;;;9.70;100.00;98684.97;5126203;27;20193;-81
2022/11/24 11:23:13;;;;;;;11.97;3.07;;;;;;;10.06;100.00;98684.25;5134495;27;20235;-81
2022/11/24 11:25:42;;;;;;;11.43;2.60;;;;;;;10.70;100.00;98681.50;5126874;27;20610;-78
2022/11/24 11:28:26;;;;;;;9.50;2.40;;;;;;;10.43;100.00;98682.56;5134408;27;20661;-81
2022/11/24 11:31:02;;;;;;;11.17;2.33;;;;;;;10.30;100.00;98685.22;5130841;27;20218;-81
2022/11/24 11:33:59;;;;;;;6.80;2.40;;;;;;;10.11;100.00;98687.41;5131732;27;20209;-81
2022/11/24 11:36:34;;;;;;;8.47;1.87;;;;;;;10.16;100.00;98687.97;5128180;28;20198;-81
2022/11/24 11:39:04;;;;;;;10.47;2.40;;;;;;;10.27;100.00;98685.44;5131317;28;20198;-81
2022/11/24 11:41:36;;;;;;;12.70;1.93;;;;;;;10.27;100.00;98682.78;5126941;28;20201;-81
2022/11/24 11:44:18;;;;;;;7.10;1.90;;;;;;;10.13;100.00;98685.50;5134199;28;20198;-80